Time;durP1;ratioP1;P1;durP2;ratioP2;P2;SDS_P1;SDS_P2;PMS_P1;PMS_P2;Temp;Humidity;BMP_temperature;BMP_pressure;BME280_temperature;BME280_humidity;BME280_pressure;Samples;Min_cycle;Max_cycle;Signal;HPM_P1;HPM_P2
2022/12/29 00:00:08;;;;;;;139.48;67.80;;;;;;;10.04;86.16;101954.06;4999488;28;20128;-77
2022/12/29 00:02:41;;;;;;;138.38;65.30;;;;;;;10.03;86.24;101926.69;4995189;28;20115;-76
2022/12/29 00:05:10;;;;;;;140.60;67.15;;;;;;;10.56;85.91;102003.78;4994566;28;20285;-75
2022/12/29 00:07:39;;;;;;;128.73;64.32;;;;;;;10.56;85.56;102000.25;4995427;28;20061;-76
2022/12/29 00:10:10;;;;;;;110.70;55.22;;;;;;;11.43;82.80;101986.31;4979142;28;20429;-77
2022/12/29 00:15:37;;;;;;;117.57;56.67;;;;;;;11.74;80.44;101989.41;4997054;28;20510;-77
2022/12/29 00:18:05;;;;;;;134.77;64.68;;;;;;;11.84;79.75;102002.91;4998286;28;20049;-78
2022/12/29 00:45:54;;;;;;;132.35;67.05;;;;;;;11.37;79.55;101962.78;5013875;28;20521;-78
2022/12/29 00:51:12;;;;;;;145.40;68.43;;;;;;;10.98;81.93;101974.41;5012534;28;20057;-75
2022/12/29 00:53:46;;;;;;;157.95;69.90;;;;;;;10.66;83.11;101961.50;5000877;28;20049;-76
2022/12/29 00:56:12;;;;;;;142.82;68.93;;;;;;;10.50;83.92;101935.13;4994261;28;20042;-78
2022/12/29 00:58:39;;;;;;;145.70;69.55;;;;;;;10.62;84.42;101971.47;4997798;28;20047;-78
2022/12/29 01:01:08;;;;;;;130.60;61.92;;;;;;;9.96;84.65;101859.06;4993993;28;20063;-78
2022/12/29 01:03:37;;;;;;;125.18;59.08;;;;;;;11.28;82.51;101966.09;5016542;28;20050;-79
2022/12/29 01:06:06;;;;;;;148.10;65.85;;;;;;;11.40;81.71;101975.84;5010460;28;20049;-75
2022/12/29 01:08:38;;;;;;;107.93;55.85;;;;;;;11.53;81.48;101967.88;5015125;28;20089;-77
2022/12/29 01:11:09;;;;;;;126.68;60.75;;;;;;;11.68;79.94;101934.84;4995933;28;20049;-78
2022/12/29 01:13:37;;;;;;;136.80;67.05;;;;;;;11.72;79.40;101970.06;4996782;28;20614;-77
2022/12/29 01:16:07;;;;;;;138.05;64.93;;;;;;;11.08;80.50;101888.59;4996639;28;20494;-77
2022/12/29 01:18:34;;;;;;;138.68;67.50;;;;;;;11.35;80.83;101908.88;4997046;28;20214;-76
2022/12/29 01:21:04;;;;;;;135.50;65.70;;;;;;;11.11;80.11;101906.97;4995740;28;20051;-77
2022/12/29 01:23:31;;;;;;;140.65;65.82;;;;;;;11.18;81.34;101967.69;4995867;28;20057;-77
2022/12/29 01:26:11;;;;;;;139.00;67.40;;;;;;;10.93;82.00;101950.81;4993396;28;20057;-77
2022/12/29 01:28:41;;;;;;;138.75;66.57;;;;;;;10.91;82.79;101963.34;4995569;28;20057;-77
2022/12/29 01:31:09;;;;;;;142.55;69.68;;;;;;;10.77;83.42;101953.66;5013473;28;20506;-79
2022/12/29 01:33:36;;;;;;;150.27;67.85;;;;;;;10.45;83.31;101932.78;4996054;28;20575;-79
2022/12/29 01:36:05;;;;;;;140.32;66.80;;;;;;;9.79;84.09;101830.16;4995161;28;20245;-78
2022/12/29 01:38:34;;;;;;;147.65;71.95;;;;;;;10.62;84.80;101976.78;4996360;28;20080;-77
2022/12/29 01:41:05;;;;;;;166.00;71.43;;;;;;;10.04;84.43;101888.59;4993641;28;20447;-76
2022/12/29 01:43:43;;;;;;;159.25;73.78;;;;;;;10.40;85.88;101976.53;4995730;28;20250;-76
2022/12/29 01:46:20;;;;;;;153.50;69.85;;;;;;;10.37;86.91;101982.91;4996043;28;20507;-77
2022/12/29 01:48:49;;;;;;;145.77;65.07;;;;;;;10.40;86.39;101988.00;5016586;28;20442;-77
2022/12/29 01:51:16;;;;;;;156.73;72.78;;;;;;;10.73;85.26;101977.88;5011038;28;20697;-78
2022/12/29 01:53:44;;;;;;;158.20;72.05;;;;;;;10.36;85.30;101944.00;4998438;28;20072;-78
2022/12/29 01:56:16;;;;;;;160.48;70.47;;;;;;;10.79;84.54;101959.72;4999016;28;20259;-78
2022/12/29 01:58:58;;;;;;;137.90;64.97;;;;;;;10.81;84.15;101989.69;4999059;28;20395;-77
2022/12/29 02:01:25;;;;;;;143.50;69.57;;;;;;;10.59;83.89;101965.53;5015815;28;20448;-78
2022/12/29 02:03:54;;;;;;;155.30;73.68;;;;;;;10.58;84.69;101971.78;4996783;28;20127;-77
2022/12/29 02:06:32;;;;;;;162.95;70.47;;;;;;;10.24;85.19;101929.75;4996499;28;20059;-77
2022/12/29 02:09:08;;;;;;;164.05;72.50;;;;;;;10.37;85.20;101951.03;5014958;28;20095;-77
2022/12/29 02:11:36;;;;;;;149.38;69.78;;;;;;;10.53;85.73;101960.63;5019049;28;20044;-77
2022/12/29 02:14:09;;;;;;;145.27;69.32;;;;;;;10.52;85.78;101961.59;5021294;28;20045;-76
2022/12/29 02:17:13;;;;;;;140.13;65.85;;;;;;;10.52;86.11;101974.88;4996084;28;20049;-78
2022/12/29 02:20:03;;;;;;;152.07;68.75;;;;;;;10.52;85.64;101969.56;5007697;28;20131;-77
2022/12/29 02:23:11;;;;;;;132.73;62.25;;;;;;;10.62;85.15;101970.63;5015213;28;20049;-78
2022/12/29 02:26:07;;;;;;;148.60;67.40;;;;;;;10.64;85.27;101964.25;4996071;28;20057;-77
2022/12/29 02:28:56;;;;;;;147.60;68.97;;;;;;;10.60;85.37;101959.25;4998211;28;20350;-76
2022/12/29 02:31:29;;;;;;;120.97;60.53;;;;;;;10.56;84.90;101955.09;4997025;28;20045;-77
2022/12/29 02:34:33;;;;;;;152.82;69.38;;;;;;;10.49;85.64;101944.06;4994416;28;20058;-76
2022/12/29 02:37:11;;;;;;;148.73;68.15;;;;;;;10.11;86.32;101893.50;4994764;28;20049;-78
2022/12/29 02:39:58;;;;;;;135.20;66.07;;;;;;;10.45;86.72;101947.88;4996113;28;20054;-78
2022/12/29 02:42:39;;;;;;;152.57;70.85;;;;;;;10.40;86.29;101940.22;4993746;28;20060;-78
2022/12/29 02:45:26;;;;;;;142.57;69.03;;;;;;;10.31;86.36;101930.19;4991936;28;20115;-77
2022/12/29 02:48:14;;;;;;;149.23;68.20;;;;;;;10.37;86.71;101934.25;4994560;28;20199;-77
2022/12/29 02:50:50;;;;;;;130.00;60.60;;;;;;;10.57;87.16;101951.50;4993470;28;20562;-76
2022/12/29 02:54:40;;;;;;;116.15;56.13;;;;;;;11.37;83.65;101948.66;4996086;28;20061;-77
2022/12/29 02:56:08;;;;;;;120.68;56.03;;;;;;;12.07;80.53;101950.72;5015021;28;20358;-77
2022/12/29 02:58:35;;;;;;;123.45;57.05;;;;;;;12.40;77.74;101912.72;5011394;28;20068;-79
2022/12/29 03:02:16;;;;;;;111.47;55.42;;;;;;;12.78;76.61;101917.78;4994197;28;20045;-78
2022/12/29 03:05:14;;;;;;;141.90;67.13;;;;;;;12.45;76.64;101913.25;5002147;28;20119;-75
2022/12/29 03:07:47;;;;;;;132.63;65.55;;;;;;;12.05;78.46;101921.53;4997575;28;20049;-76
2022/12/29 03:10:40;;;;;;;140.95;66.75;;;;;;;11.74;78.68;101918.44;4996718;28;20064;-78
2022/12/29 03:16:49;;;;;;;149.07;69.57;;;;;;;11.00;81.59;101911.38;5013562;28;20049;-76
2022/12/29 03:19:46;;;;;;;154.35;71.45;;;;;;;10.75;83.24;101906.91;5017519;28;20053;-76
2022/12/29 03:22:35;;;;;;;150.38;70.07;;;;;;;10.54;84.33;101888.00;5000272;28;20115;-78
2022/12/29 03:25:12;;;;;;;152.65;71.72;;;;;;;10.51;85.49;101902.34;5015339;28;20321;-76
2022/12/29 03:27:53;;;;;;;148.88;70.53;;;;;;;10.42;85.37;101882.56;5000087;28;20559;-77
2022/12/29 03:30:20;;;;;;;144.75;67.78;;;;;;;10.36;85.65;101876.81;4998221;28;20057;-77
2022/12/29 03:32:57;;;;;;;117.97;58.45;;;;;;;10.40;84.83;101802.16;4996113;28;20438;-78
2022/12/29 03:35:27;;;;;;;126.60;58.92;;;;;;;11.80;81.75;101897.69;5001778;28;20077;-77
2022/12/29 03:38:13;;;;;;;138.75;65.18;;;;;;;11.14;79.67;101789.00;5013925;28;20348;-78
2022/12/29 03:40:49;;;;;;;128.50;67.95;;;;;;;11.50;80.12;101904.25;5015921;28;20072;-77
2022/12/29 03:43:17;;;;;;;132.40;66.32;;;;;;;11.25;81.25;101903.34;4998088;28;20045;-77
2022/12/29 03:45:44;;;;;;;153.18;71.28;;;;;;;10.97;82.54;101885.88;4997493;28;20053;-78
2022/12/29 03:48:11;;;;;;;138.65;69.22;;;;;;;10.72;83.29;101876.09;4998247;28;20451;-76
2022/12/29 03:50:38;;;;;;;120.18;56.28;;;;;;;11.14;83.06;101892.66;5000726;28;20278;-76
2022/12/29 03:53:05;;;;;;;137.93;65.68;;;;;;;11.48;82.31;101906.16;4998328;28;20297;-77
2022/12/29 03:55:31;;;;;;;141.13;67.97;;;;;;;11.21;81.42;101899.22;4997410;28;20225;-77
2022/12/29 03:57:59;;;;;;;140.63;68.68;;;;;;;10.66;82.11;101828.72;4997170;28;20052;-78
2022/12/29 04:00:25;;;;;;;139.68;67.97;;;;;;;10.84;82.97;101888.50;4995566;28;20045;-77
2022/12/29 04:02:52;;;;;;;138.98;67.88;;;;;;;10.81;83.22;101899.38;4993348;28;20060;-78
2022/12/29 04:05:24;;;;;;;112.90;57.95;;;;;;;11.01;83.70;101878.53;4995870;28;20053;-77
2022/12/29 04:07:51;;;;;;;141.32;66.47;;;;;;;11.34;82.52;101883.25;4994306;28;20475;-78
2022/12/29 04:10:18;;;;;;;137.57;68.93;;;;;;;11.29;81.51;101890.72;4994174;28;20049;-78
2022/12/29 04:12:46;;;;;;;142.90;65.88;;;;;;;10.90;81.86;101852.72;4996565;28;20066;-77
2022/12/29 04:15:13;;;;;;;130.13;61.78;;;;;;;11.01;82.18;101894.47;4996045;28;20337;-78
2022/12/29 04:17:39;;;;;;;125.72;64.28;;;;;;;10.87;82.84;101875.03;4999467;28;20108;-77
2022/12/29 04:23:11;;;;;;;134.82;65.43;;;;;;;10.69;83.10;101881.63;4994772;28;20129;-78
2022/12/29 04:25:47;;;;;;;149.02;67.18;;;;;;;10.62;83.54;101886.50;4991880;28;20301;-76
2022/12/29 04:28:17;;;;;;;138.93;69.00;;;;;;;10.57;83.51;101887.78;4974585;28;20451;-78
2022/12/29 04:30:45;;;;;;;145.20;68.90;;;;;;;10.43;83.88;101881.59;4994691;28;20404;-76
2022/12/29 04:33:15;;;;;;;148.52;72.60;;;;;;;10.15;84.27;101845.44;4996782;28;20474;-76
2022/12/29 04:35:44;;;;;;;155.68;70.63;;;;;;;10.03;84.19;101857.72;4995952;28;20411;-78
2022/12/29 04:38:11;;;;;;;141.82;68.82;;;;;;;10.00;84.90;101865.88;4998357;28;20383;-77
2022/12/29 04:40:40;;;;;;;150.90;70.03;;;;;;;9.79;85.59;101840.78;4990628;28;20261;-77
2022/12/29 04:43:07;;;;;;;146.65;70.13;;;;;;;10.14;86.19;101901.25;4995470;28;20518;-76
2022/12/29 04:45:39;;;;;;;140.32;69.55;;;;;;;10.05;86.86;101887.66;4993179;28;20570;-77
2022/12/29 04:48:06;;;;;;;155.57;72.80;;;;;;;10.03;86.91;101872.78;4986468;28;20046;-78
2022/12/29 04:50:33;;;;;;;151.02;69.63;;;;;;;10.18;87.04;101914.22;4989656;28;20301;-77
2022/12/29 04:53:00;;;;;;;149.65;72.65;;;;;;;9.85;86.28;101861.56;4992688;28;20169;-77
2022/12/29 04:55:27;;;;;;;156.10;70.30;;;;;;;10.16;86.92;101921.41;4992806;28;20080;-77
2022/12/29 04:57:59;;;;;;;149.68;71.03;;;;;;;10.13;87.05;101921.63;4990816;28;20096;-77
2022/12/29 05:00:26;;;;;;;139.48;68.80;;;;;;;10.06;87.61;101897.28;4995111;28;20139;-77
2022/12/29 05:03:00;;;;;;;155.82;72.30;;;;;;;9.65;87.32;101832.88;4992021;28;20054;-78
2022/12/29 05:05:27;;;;;;;155.00;71.72;;;;;;;10.17;87.78;101917.84;5002681;28;20049;-77
2022/12/29 05:07:53;;;;;;;155.73;72.43;;;;;;;9.78;88.30;101858.50;5000802;28;20041;-76
2022/12/29 05:10:29;;;;;;;159.35;71.63;;;;;;;10.19;88.76;101918.56;4944382;28;20050;-78
2022/12/29 05:12:55;;;;;;;149.10;67.13;;;;;;;10.11;88.56;101890.84;4978142;28;20113;-78
2022/12/29 05:15:31;;;;;;;142.27;62.42;;;;;;;10.79;86.93;101888.00;5000575;28;20122;-77
2022/12/29 05:17:58;;;;;;;159.65;74.50;;;;;;;10.95;84.44;101870.97;4952152;28;20045;-79
2022/12/29 05:20:25;;;;;;;120.18;57.10;;;;;;;11.40;83.19;101892.59;4975414;28;20046;-78
2022/12/29 05:22:52;;;;;;;117.60;58.38;;;;;;;12.15;79.72;101893.25;5002806;28;20206;-78
2022/12/29 05:25:18;;;;;;;121.95;56.35;;;;;;;11.83;79.03;101839.75;4922185;28;20505;-76
2022/12/29 05:27:45;;;;;;;144.18;70.65;;;;;;;11.70;79.36;101862.91;4998431;28;20057;-76
2022/12/29 05:30:12;;;;;;;127.93;59.83;;;;;;;11.76;80.72;101895.22;5013840;28;20471;-77
2022/12/29 05:32:39;;;;;;;144.93;71.35;;;;;;;11.63;80.66;101897.09;5010764;28;20123;-79
2022/12/29 05:35:06;;;;;;;136.55;68.45;;;;;;;11.46;81.74;101908.13;5007239;28;20489;-78
2022/12/29 05:37:36;;;;;;;158.02;73.95;;;;;;;11.07;82.55;101870.13;5006889;28;20049;-75
2022/12/29 05:40:04;;;;;;;141.55;68.28;;;;;;;11.16;82.70;101901.34;4993129;28;20051;-78
2022/12/29 05:42:30;;;;;;;159.55;73.20;;;;;;;11.04;83.67;101904.88;4974706;28;20124;-77
2022/12/29 05:44:58;;;;;;;149.77;70.10;;;;;;;10.76;83.86;101880.25;5008508;28;20045;-79
2022/12/29 05:47:26;;;;;;;158.20;72.57;;;;;;;10.85;84.87;101930.09;5011404;28;20071;-78
2022/12/29 05:49:52;;;;;;;151.43;74.03;;;;;;;10.77;84.85;101920.94;5014847;28;20342;-79
2022/12/29 05:52:19;;;;;;;154.85;70.15;;;;;;;10.69;85.17;101918.81;5005509;28;20076;-77
2022/12/29 05:54:46;;;;;;;153.90;75.45;;;;;;;10.66;85.16;101916.38;4995020;28;20054;-78
2022/12/29 05:57:19;;;;;;;162.38;74.50;;;;;;;10.52;85.17;101911.16;4991341;28;20184;-76
2022/12/29 05:59:45;;;;;;;160.90;75.47;;;;;;;10.45;86.10;101916.84;4995937;28;20050;-76
2022/12/29 06:02:18;;;;;;;153.00;74.15;;;;;;;10.39;87.03;101916.41;5016909;28;20136;-77
2022/12/29 06:04:46;;;;;;;149.52;71.93;;;;;;;10.00;87.20;101834.03;5031772;28;20053;-77
2022/12/29 06:07:12;;;;;;;175.65;78.72;;;;;;;9.89;86.93;101823.28;5021154;28;20049;-78
2022/12/29 06:09:39;;;;;;;156.85;75.00;;;;;;;10.46;86.85;101929.19;5030230;28;20079;-78
2022/12/29 06:12:06;;;;;;;175.13;81.65;;;;;;;10.09;86.94;101871.50;5020406;28;20346;-78
2022/12/29 06:14:33;;;;;;;163.77;76.15;;;;;;;10.20;87.64;101891.09;5025574;28;20418;-77
2022/12/29 06:17:00;;;;;;;132.07;62.22;;;;;;;10.54;87.43;101920.69;5017196;28;20551;-77
2022/12/29 06:19:35;;;;;;;164.35;76.32;;;;;;;10.41;86.46;101854.31;5013707;28;20100;-76
2022/12/29 06:22:02;;;;;;;163.25;75.07;;;;;;;10.58;86.02;101894.78;5034271;28;20048;-76
2022/12/29 06:24:29;;;;;;;138.25;67.70;;;;;;;10.74;86.04;101914.03;5030738;28;20096;-75
2022/12/29 06:27:03;;;;;;;165.20;74.78;;;;;;;10.71;85.58;101922.22;5033290;28;20049;-77
2022/12/29 06:29:39;;;;;;;169.50;79.22;;;;;;;10.67;85.63;101920.72;5016375;28;20080;-77
2022/12/29 06:32:08;;;;;;;136.57;64.75;;;;;;;10.74;85.81;101914.03;5012508;28;20127;-77
2022/12/29 06:34:35;;;;;;;165.00;74.95;;;;;;;10.53;85.60;101884.47;5013965;28;20037;-78
2022/12/29 06:37:04;;;;;;;174.95;81.53;;;;;;;10.75;85.48;101918.38;5009405;28;20084;-79
2022/12/29 06:39:31;;;;;;;172.18;77.88;;;;;;;10.81;85.44;101920.63;5013076;28;20195;-77
2022/12/29 06:41:58;;;;;;;162.13;76.60;;;;;;;10.47;85.07;101875.13;5020348;28;20053;-77
2022/12/29 06:44:24;;;;;;;170.52;77.25;;;;;;;10.66;85.49;101927.00;5019110;28;20092;-77
2022/12/29 06:46:54;;;;;;;169.05;79.38;;;;;;;10.57;85.89;101927.59;5011571;28;20053;-77
2022/12/29 06:49:24;;;;;;;167.55;78.35;;;;;;;10.53;86.27;101928.75;5027249;28;20470;-78
2022/12/29 06:51:50;;;;;;;167.80;77.55;;;;;;;10.56;86.54;101944.47;5027642;28;20525;-78
2022/12/29 06:54:17;;;;;;;185.90;85.05;;;;;;;10.56;86.02;101939.16;5028071;28;20052;-77
2022/12/29 06:56:47;;;;;;;174.65;83.28;;;;;;;10.51;86.48;101941.28;5043024;28;20040;-77
2022/12/29 06:59:13;;;;;;;176.20;81.63;;;;;;;10.41;86.25;101935.75;5020345;28;20151;-77
2022/12/29 07:01:40;;;;;;;181.18;82.35;;;;;;;10.20;86.92;101900.84;4995904;28;20050;-78
2022/12/29 07:04:07;;;;;;;187.13;86.40;;;;;;;10.41;86.58;101939.28;5021719;28;20052;-78
2022/12/29 07:06:34;;;;;;;179.00;82.45;;;;;;;10.21;86.82;101918.47;5040877;28;20045;-78
2022/12/29 07:09:00;;;;;;;175.63;81.68;;;;;;;10.25;86.61;101941.22;5034311;28;20713;-78
2022/12/29 07:11:27;;;;;;;166.55;79.90;;;;;;;10.09;87.67;101917.47;5036494;28;20052;-79
2022/12/29 07:13:57;;;;;;;175.25;81.80;;;;;;;10.06;87.18;101926.47;5037524;28;20044;-78
2022/12/29 07:16:29;;;;;;;168.23;83.57;;;;;;;9.97;87.68;101913.81;5035636;28;20074;-78
2022/12/29 07:18:56;;;;;;;176.20;85.95;;;;;;;10.15;88.57;101945.44;5045310;28;20044;-77
2022/12/29 07:21:23;;;;;;;185.30;85.63;;;;;;;10.20;88.10;101954.78;5056442;28;20048;-77
2022/12/29 07:23:50;;;;;;;184.23;83.38;;;;;;;10.09;87.73;101941.34;5036372;28;20052;-77
2022/12/29 07:26:18;;;;;;;175.75;84.05;;;;;;;10.16;87.94;101960.38;5056842;28;20048;-78
2022/12/29 07:28:50;;;;;;;183.73;85.32;;;;;;;9.98;88.16;101954.47;4953835;28;20060;-77
2022/12/29 07:31:20;;;;;;;198.43;91.95;;;;;;;10.02;88.46;101946.22;5029165;28;20076;-76
2022/12/29 07:33:56;;;;;;;203.07;90.32;;;;;;;9.54;87.92;101876.84;5017290;28;20300;-77
2022/12/29 07:36:22;;;;;;;205.75;92.90;;;;;;;10.01;88.72;101965.72;5022781;28;20516;-78
2022/12/29 07:38:55;;;;;;;186.05;88.05;;;;;;;9.95;88.64;101950.22;5043644;28;20175;-76
2022/12/29 07:41:21;;;;;;;205.80;93.10;;;;;;;9.87;88.40;101939.25;4952223;28;20793;-76
2022/12/29 07:43:48;;;;;;;187.55;88.25;;;;;;;9.99;89.13;101967.63;5035140;28;20041;-76
2022/12/29 07:46:15;;;;;;;201.18;89.55;;;;;;;9.61;89.10;101914.41;5030100;28;20044;-76
2022/12/29 07:49:02;;;;;;;198.57;88.50;;;;;;;9.91;89.76;101961.13;5024368;28;20136;-76
2022/12/29 07:51:28;;;;;;;205.95;90.82;;;;;;;9.98;88.93;101973.91;5026679;28;20059;-76
2022/12/29 07:53:55;;;;;;;192.00;88.53;;;;;;;10.03;89.21;101971.78;5018842;28;20148;-77
2022/12/29 07:56:22;;;;;;;189.05;83.20;;;;;;;9.59;89.08;101922.47;5019913;28;20065;-76
2022/12/29 07:58:49;;;;;;;171.88;80.90;;;;;;;9.67;88.89;101932.56;5031371;28;20417;-75
2022/12/29 08:01:15;;;;;;;184.95;80.68;;;;;;;9.87;89.27;101971.06;5037916;28;20056;-77
2022/12/29 08:03:42;;;;;;;182.35;79.28;;;;;;;9.89;89.42;101974.47;5019675;28;20057;-77
2022/12/29 08:06:12;;;;;;;189.07;81.70;;;;;;;9.81;89.84;101972.31;5016138;28;20085;-77
2022/12/29 08:08:42;;;;;;;190.85;81.32;;;;;;;9.70;90.04;101958.03;5016102;28;20160;-78
2022/12/29 08:11:09;;;;;;;170.80;79.30;;;;;;;9.62;90.22;101935.53;5015564;28;20716;-77
2022/12/29 08:13:36;;;;;;;178.27;75.88;;;;;;;9.46;90.23;101912.72;5015240;28;20045;-77
2022/12/29 08:16:03;;;;;;;175.20;77.90;;;;;;;9.86;90.40;101979.16;5013569;28;20053;-77
2022/12/29 08:18:34;;;;;;;183.80;71.97;;;;;;;9.80;90.22;101961.81;5024271;28;20037;-76
2022/12/29 08:21:04;;;;;;;182.98;73.47;;;;;;;9.71;90.49;101946.47;4999887;28;20193;-78
2022/12/29 08:23:32;;;;;;;176.15;71.57;;;;;;;9.89;90.15;101979.78;5026649;28;20053;-77
2022/12/29 08:26:07;;;;;;;177.18;71.95;;;;;;;9.91;90.35;101966.44;5024423;28;20073;-77
2022/12/29 08:28:34;;;;;;;173.30;71.97;;;;;;;9.86;90.17;101961.44;5037064;28;20114;-76
2022/12/29 08:31:02;;;;;;;178.25;69.18;;;;;;;9.75;90.12;101953.28;5020607;28;20496;-76
2022/12/29 08:33:30;;;;;;;171.07;72.80;;;;;;;9.77;90.12;101962.84;5026858;28;20049;-77
2022/12/29 08:36:04;;;;;;;180.90;70.55;;;;;;;9.86;89.87;101966.72;5024801;28;20061;-77
2022/12/29 08:38:32;;;;;;;166.73;66.57;;;;;;;9.71;90.38;101950.00;5025305;28;20046;-77
2022/12/29 08:41:08;;;;;;;179.25;68.90;;;;;;;9.94;90.69;101977.69;5015798;28;20041;-76
2022/12/29 08:43:35;;;;;;;162.50;67.78;;;;;;;10.05;90.64;101979.66;5016039;28;20491;-77
2022/12/29 08:46:04;;;;;;;170.80;66.50;;;;;;;9.68;91.13;101881.22;5030303;28;20429;-78
2022/12/29 08:48:31;;;;;;;164.68;62.55;;;;;;;10.30;89.72;101968.31;5035900;28;20044;-76
2022/12/29 08:50:57;;;;;;;176.98;60.47;;;;;;;10.31;88.58;101969.16;5036360;28;20041;-77
2022/12/29 08:53:25;;;;;;;157.38;59.85;;;;;;;10.27;88.68;101964.03;5028086;28;20120;-77
2022/12/29 08:55:57;;;;;;;172.50;60.30;;;;;;;9.31;87.90;101804.09;5028332;28;20516;-78
2022/12/29 08:58:30;;;;;;;160.60;57.72;;;;;;;10.14;88.04;101954.31;5023896;28;20049;-76
2022/12/29 09:00:58;;;;;;;159.75;58.42;;;;;;;10.14;88.59;101964.94;5012427;28;20049;-77
2022/12/29 09:03:26;;;;;;;156.82;58.70;;;;;;;10.21;89.11;101990.13;5018179;28;20060;-77
2022/12/29 09:06:13;;;;;;;156.88;54.25;;;;;;;10.21;88.81;101982.16;5016937;28;20590;-77
2022/12/29 09:08:43;;;;;;;165.98;56.70;;;;;;;10.26;88.25;102001.28;5029481;28;20111;-76
2022/12/29 09:11:17;;;;;;;161.70;56.53;;;;;;;10.26;88.30;101990.66;5040492;28;20053;-75
2022/12/29 09:13:45;;;;;;;153.80;51.53;;;;;;;10.03;88.14;101963.84;5046304;28;20218;-79
2022/12/29 09:16:14;;;;;;;156.20;54.17;;;;;;;10.01;88.12;101952.47;5027861;28;20049;-78
2022/12/29 09:18:42;;;;;;;137.82;54.03;;;;;;;10.09;88.25;101967.88;5014187;28;20323;-76
2022/12/29 09:21:10;;;;;;;150.73;52.30;;;;;;;10.14;88.39;101976.38;5017395;28;20048;-75
2022/12/29 09:23:38;;;;;;;140.90;53.72;;;;;;;10.32;88.17;102000.09;5025310;28;20690;-76
2022/12/29 09:26:05;;;;;;;153.82;52.58;;;;;;;10.32;88.36;101992.97;5022690;28;20068;-77
2022/12/29 09:28:38;;;;;;;139.27;51.10;;;;;;;10.33;87.96;102009.75;5033842;28;20076;-76
2022/12/29 09:31:05;;;;;;;144.13;49.00;;;;;;;10.24;87.80;101993.44;5023705;28;20048;-76
2022/12/29 09:33:38;;;;;;;147.98;53.53;;;;;;;10.01;88.35;101951.63;5025663;28;20052;-76
2022/12/29 09:36:05;;;;;;;153.82;55.88;;;;;;;10.26;87.85;101985.34;5031683;28;20049;-78
2022/12/29 09:38:31;;;;;;;147.95;58.55;;;;;;;10.39;88.51;101999.56;5030868;28;20060;-76
2022/12/29 09:41:19;;;;;;;172.80;61.38;;;;;;;10.41;88.37;102007.41;5022637;28;20056;-77
2022/12/29 09:44:00;;;;;;;162.98;62.13;;;;;;;10.48;87.76;101983.03;5023220;28;20231;-77
2022/12/29 09:46:49;;;;;;;131.43;49.63;;;;;;;11.42;84.59;101997.03;5011825;28;20051;-77
2022/12/29 09:49:26;;;;;;;154.13;64.05;;;;;;;11.84;81.09;102003.75;5013507;28;20071;-76
2022/12/29 09:51:58;;;;;;;149.38;58.28;;;;;;;10.64;81.81;101862.50;5010129;28;20049;-77
2022/12/29 09:54:38;;;;;;;160.85;64.53;;;;;;;10.87;82.49;101940.59;5013232;28;20053;-77
2022/12/29 09:57:14;;;;;;;147.73;57.60;;;;;;;10.89;83.48;101963.44;5014121;28;20041;-77
2022/12/29 09:59:46;;;;;;;156.35;59.58;;;;;;;11.00;84.71;102007.88;5016015;28;20198;-78
2022/12/29 10:02:39;;;;;;;151.80;60.25;;;;;;;10.85;84.24;101983.22;5018512;28;20516;-78
2022/12/29 10:05:26;;;;;;;160.30;59.95;;;;;;;10.69;85.38;101987.84;5021343;28;20056;-78
2022/12/29 10:08:21;;;;;;;140.10;57.03;;;;;;;10.50;86.25;101968.81;4997338;28;20308;-77
2022/12/29 10:11:15;;;;;;;147.38;57.53;;;;;;;10.53;86.79;101982.72;5034367;28;20135;-79
2022/12/29 10:14:12;;;;;;;155.90;58.38;;;;;;;10.57;86.84;101984.22;4992475;28;20111;-78
2022/12/29 10:16:44;;;;;;;132.27;52.95;;;;;;;10.56;86.50;101981.66;4997274;28;20080;-77
2022/12/29 10:19:34;;;;;;;126.45;50.50;;;;;;;10.66;87.40;101985.41;5030186;28;20190;-77
2022/12/29 10:22:29;;;;;;;133.65;52.08;;;;;;;10.67;85.22;101915.41;5054702;28;20052;-77
2022/12/29 10:25:02;;;;;;;157.18;59.78;;;;;;;11.00;84.91;101985.78;5034855;28;20058;-78
2022/12/29 10:27:34;;;;;;;152.88;59.00;;;;;;;11.44;82.85;101974.69;5035547;28;20230;-76
2022/12/29 10:30:02;;;;;;;155.50;59.22;;;;;;;11.26;83.00;101965.34;5032542;28;20284;-76
2022/12/29 10:32:42;;;;;;;151.18;58.92;;;;;;;11.01;83.08;101972.38;5026209;28;20479;-78
2022/12/29 10:35:16;;;;;;;145.80;57.05;;;;;;;10.83;84.21;101977.16;5016776;28;20383;-76
2022/12/29 10:38:05;;;;;;;146.30;57.15;;;;;;;10.80;85.63;101982.69;5029681;28;20048;-77
2022/12/29 10:40:45;;;;;;;152.03;58.07;;;;;;;10.64;86.09;101974.03;5016336;28;20060;-76
2022/12/29 10:43:35;;;;;;;156.85;57.70;;;;;;;10.70;85.72;101968.28;5016440;28;20151;-77
2022/12/29 10:46:09;;;;;;;148.43;56.95;;;;;;;10.58;85.39;101969.13;5012956;28;20069;-77
2022/12/29 10:48:36;;;;;;;149.55;59.38;;;;;;;10.54;85.82;101960.53;5016500;28;20076;-75
2022/12/29 10:51:06;;;;;;;159.32;59.78;;;;;;;10.36;86.21;101944.00;5029518;28;20053;-77
2022/12/29 10:53:50;;;;;;;153.70;57.88;;;;;;;10.23;86.79;101927.19;5017205;28;20056;-76
2022/12/29 10:56:29;;;;;;;144.82;56.33;;;;;;;10.24;87.04;101929.75;5032786;28;20371;-76
2022/12/29 10:59:01;;;;;;;141.23;55.10;;;;;;;10.36;86.88;101941.34;5037759;28;20049;-78
2022/12/29 11:01:50;;;;;;;138.27;57.47;;;;;;;10.36;86.75;101936.03;5031290;28;20052;-78
2022/12/29 11:04:28;;;;;;;149.35;59.10;;;;;;;9.70;87.70;101828.13;4972079;28;20189;-77
2022/12/29 11:06:56;;;;;;;139.32;56.90;;;;;;;10.53;87.74;101947.34;4985246;28;20453;-77
2022/12/29 11:09:28;;;;;;;147.68;57.72;;;;;;;10.56;87.42;101950.66;4975928;28;20046;-77
2022/12/29 11:12:28;;;;;;;140.20;55.67;;;;;;;10.69;86.33;101955.97;5010171;28;20052;-77
2022/12/29 11:15:07;;;;;;;147.82;59.00;;;;;;;10.88;85.45;101953.78;5012592;28;20119;-77
2022/12/29 11:17:59;;;;;;;149.48;57.42;;;;;;;10.88;85.12;101953.78;5010796;28;20049;-77
2022/12/29 11:20:39;;;;;;;113.78;45.33;;;;;;;11.45;84.50;101948.94;5014595;28;20060;-78
2022/12/29 11:23:24;;;;;;;118.95;51.50;;;;;;;11.36;83.44;101928.31;5008673;28;20053;-77
2022/12/29 11:26:15;;;;;;;134.57;54.85;;;;;;;11.30;83.24;101934.94;5004316;28;20077;-76
2022/12/29 11:28:48;;;;;;;133.70;54.65;;;;;;;10.96;83.71;101899.25;4996738;28;20080;-77
2022/12/29 11:31:21;;;;;;;137.77;57.20;;;;;;;11.00;83.99;101895.44;5000631;28;20058;-77
2022/12/29 11:33:51;;;;;;;144.27;57.67;;;;;;;10.64;83.95;101838.59;5011689;28;20138;-76
2022/12/29 11:36:24;;;;;;;137.30;55.20;;;;;;;10.56;83.77;101831.16;4986810;28;20046;-76
2022/12/29 11:38:55;;;;;;;144.45;59.10;;;;;;;11.09;83.44;101916.03;4976024;28;20061;-77
2022/12/29 11:41:29;;;;;;;138.60;54.88;;;;;;;11.01;83.66;101923.69;4975102;28;20443;-76
2022/12/29 11:43:59;;;;;;;129.80;54.72;;;;;;;10.68;84.20;101899.38;4993237;28;20054;-77
2022/12/29 11:46:37;;;;;;;119.32;48.50;;;;;;;11.32;83.59;101901.13;4978324;28;20050;-76
2022/12/29 11:49:05;;;;;;;128.50;52.58;;;;;;;11.47;82.14;101899.16;5032224;28;20487;-77
2022/12/29 11:51:46;;;;;;;119.50;51.72;;;;;;;11.23;82.40;101896.47;5028794;28;20057;-77
2022/12/29 11:54:46;;;;;;;116.53;48.05;;;;;;;11.31;82.97;101900.28;5016024;28;20045;-77
2022/12/29 11:57:17;;;;;;;110.13;47.10;;;;;;;12.24;79.12;101894.41;4999950;28;20045;-77
2022/12/29 11:59:50;;;;;;;111.07;45.30;;;;;;;12.42;78.57;101886.81;5004570;28;20049;-76
2022/12/29 12:02:37;;;;;;;117.90;52.38;;;;;;;11.79;76.78;101766.44;4999380;28;20061;-77
2022/12/29 12:05:15;;;;;;;122.93;50.72;;;;;;;12.26;78.23;101864.97;5005142;28;20046;-76